Time;durP1;ratioP1;P1;durP2;ratioP2;P2;SDS_P1;SDS_P2;PMS_P1;PMS_P2;Temp;Humidity;BMP_temperature;BMP_pressure;BME280_temperature;BME280_humidity;BME280_pressure;Samples;Min_cycle;Max_cycle;Signal;HPM_P1;HPM_P2
2021/12/12 00:01:22;;;;;;;15.15;8.98;;;15.40;43.80;14.30;101695.00;;;;5073643;28;20438;-68
2021/12/12 00:04:14;;;;;;;15.15;8.80;;;15.40;43.90;14.30;101709.00;;;;5085219;28;20267;-68
2021/12/12 00:07:05;;;;;;;17.45;8.63;;;15.30;43.80;14.30;101695.00;;;;5071974;28;20162;-68
2021/12/12 00:09:55;;;;;;;15.85;8.20;;;15.40;43.90;14.30;101700.00;;;;5073861;28;20039;-68
2021/12/12 00:12:47;;;;;;;15.27;7.93;;;15.30;44.60;14.30;101691.00;;;;5072390;28;20605;-68
2021/12/12 00:15:33;;;;;;;14.65;7.68;;;15.30;43.90;14.30;101685.00;;;;5071182;28;20123;-68
2021/12/12 00:18:19;;;;;;;13.63;8.07;;;15.30;43.90;14.30;101684.00;;;;5070946;28;20580;-68
2021/12/12 00:21:06;;;;;;;14.48;7.95;;;15.30;43.90;14.30;101692.00;;;;5085114;28;20477;-68
2021/12/12 00:23:52;;;;;;;12.90;7.53;;;15.30;43.90;14.30;101682.00;;;;5059866;28;20071;-68
2021/12/12 00:26:39;;;;;;;14.02;8.07;;;15.30;44.00;14.30;101684.00;;;;5068147;28;20516;-68
2021/12/12 00:29:26;;;;;;;12.25;7.88;;;15.30;44.00;14.30;101687.00;;;;5084755;28;20035;-68
2021/12/12 00:32:14;;;;;;;16.13;7.78;;;15.30;44.00;14.30;101683.00;;;;5070577;28;20047;-68
2021/12/12 00:35:04;;;;;;;18.05;8.75;;;15.40;44.10;14.30;101694.00;;;;5071469;28;20051;-68
2021/12/12 00:37:57;;;;;;;12.32;7.53;;;15.40;44.10;14.30;101689.00;;;;5072344;28;20036;-68
2021/12/12 00:40:46;;;;;;;12.00;6.72;;;15.30;44.00;14.30;101672.00;;;;5069745;28;20044;-68
2021/12/12 00:43:46;;;;;;;14.27;7.88;;;15.30;44.10;14.30;101666.00;;;;5088029;28;20043;-68
2021/12/12 00:46:32;;;;;;;13.60;7.18;;;15.30;44.10;14.30;101666.00;;;;5074177;28;20352;-68
2021/12/12 00:49:19;;;;;;;15.32;7.70;;;15.40;44.10;14.30;101671.00;;;;5088581;28;20127;-68
2021/12/12 00:52:07;;;;;;;14.18;7.13;;;15.30;44.10;14.30;101672.00;;;;5090146;28;20477;-68
2021/12/12 00:54:53;;;;;;;14.88;7.57;;;15.30;44.10;14.30;101677.00;;;;5076961;28;20028;-68
2021/12/12 00:57:39;;;;;;;11.93;6.97;;;15.30;44.10;14.30;101673.00;;;;5086072;28;20044;-68
2021/12/12 01:00:30;;;;;;;14.27;6.82;;;15.30;44.10;14.30;101671.00;;;;5074286;28;20048;-68
2021/12/12 01:03:26;;;;;;;17.85;7.25;;;15.30;44.20;14.30;101667.00;;;;5087284;28;20036;-68
2021/12/12 01:06:12;;;;;;;14.90;6.57;;;15.30;44.30;14.30;101674.00;;;;5087191;28;20397;-68
2021/12/12 01:09:00;;;;;;;12.63;6.85;;;15.40;44.30;14.30;101674.00;;;;5073336;28;20047;-68
2021/12/12 01:11:50;;;;;;;10.55;6.10;;;15.30;44.20;14.30;101674.00;;;;5076321;28;20101;-68
2021/12/12 01:14:41;;;;;;;9.52;5.55;;;15.30;44.30;14.30;101677.00;;;;5065997;28;20044;-68
2021/12/12 01:17:38;;;;;;;11.38;6.18;;;15.30;44.30;14.30;101670.00;;;;5057828;28;20067;-68
2021/12/12 01:20:59;;;;;;;12.48;5.75;;;15.30;44.30;14.30;101672.00;;;;5074311;28;20044;-68
2021/12/12 01:23:57;;;;;;;12.27;6.07;;;15.30;44.30;14.30;101664.00;;;;5087935;28;20133;-68
2021/12/12 01:26:43;;;;;;;10.23;5.80;;;15.30;44.30;14.30;101669.00;;;;5060864;28;20047;-68
2021/12/12 01:29:29;;;;;;;9.40;5.03;;;15.30;44.20;14.30;101667.00;;;;5088490;28;20040;-68
2021/12/12 01:32:24;;;;;;;11.27;5.75;;;15.30;44.30;14.30;101662.00;;;;5072867;28;20491;-68
2021/12/12 01:35:15;;;;;;;11.90;5.63;;;15.30;44.30;14.30;101658.00;;;;5087922;28;20082;-68
2021/12/12 01:41:09;;;;;;;8.73;4.68;;;15.30;44.30;14.30;101661.00;;;;5073273;28;20480;-68
2021/12/12 01:44:06;;;;;;;7.40;4.65;;;15.30;44.30;14.30;101661.00;;;;5076437;28;20493;-68
2021/12/12 01:47:16;;;;;;;8.77;4.47;;;15.30;44.30;14.30;101658.00;;;;5081233;28;20203;-68
2021/12/12 01:50:15;;;;;;;10.45;4.25;;;15.30;44.30;14.30;101658.00;;;;5072523;28;20084;-68
2021/12/12 01:53:05;;;;;;;11.05;4.47;;;15.30;44.30;14.30;101657.00;;;;5057328;28;20044;-68
2021/12/12 01:56:03;;;;;;;7.82;4.47;;;15.30;44.30;14.30;101664.00;;;;5054240;28;20488;-68
2021/12/12 01:58:54;;;;;;;9.17;4.50;;;15.30;44.30;14.30;101664.00;;;;5087983;28;20416;-68
2021/12/12 02:01:52;;;;;;;7.05;3.97;;;15.30;44.30;14.30;101665.00;;;;5071644;28;20044;-68
2021/12/12 02:04:43;;;;;;;8.57;4.15;;;15.30;44.30;14.30;101660.00;;;;5055882;28;20035;-68
2021/12/12 02:07:32;;;;;;;6.20;3.95;;;15.30;44.30;14.30;101660.00;;;;5088133;28;20542;-68
2021/12/12 02:10:28;;;;;;;8.65;4.22;;;15.30;44.30;14.30;101672.00;;;;5074867;28;20082;-68
2021/12/12 02:13:16;;;;;;;10.98;4.10;;;15.30;44.30;14.30;101669.00;;;;5076012;28;20095;-68
2021/12/12 02:16:03;;;;;;;8.60;3.83;;;15.30;44.30;14.30;101658.00;;;;5087746;28;20044;-68
2021/12/12 02:18:52;;;;;;;10.60;4.68;;;15.30;44.30;14.30;101659.00;;;;5060091;28;20048;-67
2021/12/12 02:21:59;;;;;;;6.38;3.38;;;15.30;44.30;14.30;101652.00;;;;5070854;28;20073;-68
2021/12/12 02:37:10;;;;;;;7.10;3.45;;;15.30;44.30;14.30;101636.00;;;;5087447;28;20525;-68
2021/12/12 02:39:56;;;;;;;7.00;3.58;;;15.30;44.30;14.30;101636.00;;;;5071420;28;20872;-68
2021/12/12 02:42:43;;;;;;;6.07;3.40;;;15.30;44.30;14.30;101646.00;;;;5058748;28;20063;-68
2021/12/12 02:45:31;;;;;;;5.03;3.00;;;15.30;44.40;14.30;101644.00;;;;5074479;28;20035;-68
2021/12/12 02:48:20;;;;;;;4.93;2.65;;;15.30;44.40;14.30;101644.00;;;;5086607;28;20047;-68
2021/12/12 02:51:10;;;;;;;6.30;2.30;;;15.30;44.40;14.30;101640.00;;;;5073442;28;20047;-68
2021/12/12 02:53:56;;;;;;;6.65;3.03;;;15.30;44.40;14.30;101645.00;;;;5071202;28;20036;-68
2021/12/12 02:56:45;;;;;;;6.35;2.53;;;15.30;44.40;14.30;101646.00;;;;5072617;28;20078;-68
2021/12/12 02:59:31;;;;;;;5.63;3.15;;;15.30;44.40;14.30;101648.00;;;;5084602;28;20036;-68
2021/12/12 03:02:28;;;;;;;8.68;3.42;;;15.30;44.40;14.30;101655.00;;;;5087154;28;20035;-68
2021/12/12 03:05:17;;;;;;;7.15;3.20;;;15.30;44.50;14.30;101648.00;;;;5072808;28;20579;-68
2021/12/12 03:08:03;;;;;;;7.10;2.95;;;15.30;44.40;14.30;101640.00;;;;5085777;28;20040;-68
2021/12/12 03:10:51;;;;;;;8.05;3.28;;;15.30;44.50;14.30;101655.00;;;;5072667;28;20088;-68
2021/12/12 03:13:38;;;;;;;7.53;3.15;;;15.30;44.50;14.30;101653.00;;;;5072533;28;20083;-68
2021/12/12 03:16:24;;;;;;;4.70;2.50;;;15.30;44.40;14.30;101655.00;;;;5071970;28;20039;-68
2021/12/12 03:19:10;;;;;;;5.07;2.88;;;15.30;44.40;14.30;101654.00;;;;5072473;28;20056;-68
2021/12/12 03:21:56;;;;;;;8.02;2.90;;;15.30;44.40;14.30;101640.00;;;;5087472;28;20032;-68
2021/12/12 03:24:43;;;;;;;8.75;3.22;;;15.30;44.50;14.30;101627.00;;;;5086899;28;20063;-68
2021/12/12 03:27:29;;;;;;;7.88;2.60;;;15.30;44.50;14.30;101633.00;;;;5066336;28;20032;-68
2021/12/12 03:30:16;;;;;;;5.85;2.92;;;15.30;44.50;14.30;101637.00;;;;5058115;28;20044;-68
2021/12/12 03:33:03;;;;;;;6.15;2.47;;;15.30;44.40;14.30;101634.00;;;;5070753;28;20546;-68
2021/12/12 03:36:02;;;;;;;4.90;2.25;;;15.30;44.40;14.30;101629.00;;;;5091645;28;20067;-68
2021/12/12 03:38:53;;;;;;;5.80;2.60;;;15.30;44.50;14.30;101631.00;;;;5083516;28;20059;-68
2021/12/12 03:41:40;;;;;;;4.53;2.50;;;15.30;44.40;14.30;101627.00;;;;5084966;28;20165;-68
2021/12/12 03:44:29;;;;;;;4.43;2.25;;;15.30;44.40;14.30;101632.00;;;;5085234;28;20089;-68
2021/12/12 03:47:22;;;;;;;8.95;3.67;;;15.30;44.50;14.30;101629.00;;;;5071964;28;20040;-68
2021/12/12 03:50:15;;;;;;;6.00;2.47;;;15.30;44.50;14.30;101643.00;;;;5068475;28;20054;-68
2021/12/12 03:53:01;;;;;;;6.18;2.60;;;15.30;44.50;14.30;101641.00;;;;5068331;28;20051;-68
2021/12/12 03:55:48;;;;;;;5.07;2.20;;;15.30;44.50;14.30;101630.00;;;;5071977;28;20044;-68
2021/12/12 03:58:34;;;;;;;4.05;2.40;;;15.30;44.50;14.30;101625.00;;;;5069345;28;20052;-68
2021/12/12 04:01:44;;;;;;;6.93;2.85;;;15.30;44.50;14.30;101615.00;;;;5085959;28;20036;-68
2021/12/12 04:04:37;;;;;;;9.13;2.40;;;15.30;44.50;14.30;101623.00;;;;5083338;28;20317;-68
2021/12/12 04:07:26;;;;;;;4.35;2.40;;;15.30;44.50;14.30;101607.00;;;;5071376;28;20382;-68
2021/12/12 04:10:14;;;;;;;6.85;2.20;;;15.30;44.50;14.30;101621.00;;;;5086206;28;20044;-68
2021/12/12 04:13:00;;;;;;;5.88;2.25;;;15.30;44.60;14.30;101613.00;;;;5085193;28;20450;-68
2021/12/12 04:15:51;;;;;;;5.53;2.13;;;15.30;44.60;14.30;101612.00;;;;5077692;28;20190;-68
2021/12/12 04:18:37;;;;;;;7.93;2.08;;;15.30;44.60;14.30;101619.00;;;;5078170;28;20048;-68
2021/12/12 04:21:24;;;;;;;5.28;1.75;;;15.30;44.50;14.30;101613.00;;;;5067874;28;20047;-68
2021/12/12 04:24:11;;;;;;;3.30;1.80;;;15.30;44.50;14.30;101623.00;;;;5056865;28;20042;-68
2021/12/12 04:26:58;;;;;;;7.13;2.42;;;15.30;44.60;14.30;101617.00;;;;5085637;28;20047;-68
2021/12/12 04:29:47;;;;;;;3.75;1.95;;;15.30;44.60;14.30;101618.00;;;;5069844;28;20131;-68
2021/12/12 04:32:34;;;;;;;8.05;2.00;;;15.30;44.60;14.30;101618.00;;;;5084756;28;20044;-68
2021/12/12 04:35:25;;;;;;;4.35;2.38;;;15.30;44.60;14.30;101615.00;;;;5085803;28;20043;-68
2021/12/12 04:38:11;;;;;;;5.03;2.28;;;15.30;44.70;14.30;101608.00;;;;5083692;28;20407;-68
2021/12/12 04:40:57;;;;;;;5.82;2.05;;;15.30;44.70;14.30;101612.00;;;;5083512;28;20040;-68
2021/12/12 04:43:44;;;;;;;5.20;1.80;;;15.30;44.70;14.30;101608.00;;;;5073131;28;20113;-68
2021/12/12 04:50:16;;;;;;;3.53;1.98;;;15.30;44.70;14.30;101603.00;;;;5084885;28;20055;-68
2021/12/12 04:53:29;;;;;;;5.80;2.38;;;15.30;44.70;14.30;101596.00;;;;5085262;28;20424;-68
2021/12/12 04:56:58;;;;;;;5.82;2.20;;;15.30;44.80;14.30;101593.00;;;;5083980;28;20036;-68
2021/12/12 04:59:49;;;;;;;4.30;1.58;;;15.30;44.80;14.30;101589.00;;;;5071495;28;20034;-68
2021/12/12 05:02:50;;;;;;;3.80;1.98;;;15.30;44.80;14.30;101598.00;;;;5072291;28;20040;-68
2021/12/12 05:06:26;;;;;;;3.88;1.92;;;15.30;44.80;14.30;101592.00;;;;5073430;28;20035;-68
2021/12/12 05:09:20;;;;;;;4.40;1.70;;;15.20;44.80;14.30;101578.00;;;;5083886;28;20062;-68
2021/12/12 05:12:17;;;;;;;5.00;2.20;;;15.30;44.80;14.30;101573.00;;;;5059619;28;20082;-69
2021/12/12 05:15:16;;;;;;;4.10;1.60;;;15.30;44.80;14.30;101575.00;;;;5081571;28;20036;-68
2021/12/12 05:18:11;;;;;;;5.03;1.83;;;15.30;44.80;14.30;101564.00;;;;5058297;28;20040;-68
2021/12/12 05:21:03;;;;;;;5.03;1.58;;;15.30;44.80;14.30;101570.00;;;;5069157;28;20091;-68
2021/12/12 05:23:51;;;;;;;3.75;1.70;;;15.30;44.80;14.30;101569.00;;;;5089444;28;20043;-68
2021/12/12 05:26:55;;;;;;;3.33;1.60;;;15.30;44.90;14.30;101563.00;;;;5051162;28;20056;-68
2021/12/12 05:30:07;;;;;;;5.47;2.17;;;15.30;44.90;14.30;101570.00;;;;5052760;28;20040;-68
2021/12/12 05:32:53;;;;;;;4.10;1.70;;;15.20;44.80;14.30;101561.00;;;;5080949;28;20029;-68
2021/12/12 05:35:40;;;;;;;7.30;1.95;;;15.30;44.90;14.30;101566.00;;;;5066907;28;20127;-68
2021/12/12 05:38:26;;;;;;;4.85;1.88;;;15.30;44.90;14.30;101553.00;;;;5080036;28;20040;-68
2021/12/12 05:41:13;;;;;;;3.88;1.95;;;15.20;44.90;14.30;101558.00;;;;5072456;28;20086;-68
2021/12/12 05:44:00;;;;;;;4.35;1.70;;;15.20;44.90;14.30;101547.00;;;;5074746;28;20466;-68
2021/12/12 05:46:46;;;;;;;4.93;1.77;;;15.20;44.90;14.30;101548.00;;;;5074687;28;20435;-68
2021/12/12 05:49:33;;;;;;;4.72;1.65;;;15.20;44.90;14.30;101534.00;;;;5059257;28;20048;-68
2021/12/12 05:52:21;;;;;;;5.25;1.70;;;15.20;45.00;14.30;101540.00;;;;5060475;28;20043;-68
2021/12/12 05:55:08;;;;;;;5.15;1.88;;;15.20;45.00;14.30;101538.00;;;;5085566;28;20036;-68
2021/12/12 05:57:56;;;;;;;8.80;2.53;;;15.20;45.00;14.30;101536.00;;;;5072471;28;20135;-68
2021/12/12 06:00:54;;;;;;;6.07;1.35;;;15.20;45.00;14.30;101524.00;;;;5075039;28;20044;-68
2021/12/12 06:03:41;;;;;;;;;;;15.20;45.00;14.30;101536.00;;;;5075187;28;20043;-68
2021/12/12 06:06:35;;;;;;;3.38;1.27;;;15.20;44.90;14.30;101537.00;;;;5075032;28;20326;-68
2021/12/12 06:09:21;;;;;;;3.10;1.48;;;15.30;45.00;14.30;101530.00;;;;5072533;28;20093;-68
2021/12/12 06:12:08;;;;;;;6.03;1.50;;;15.20;45.00;14.30;101531.00;;;;5055248;28;20055;-68
2021/12/12 06:14:57;;;;;;;3.50;1.40;;;15.20;45.10;14.30;101548.00;;;;5075667;28;20060;-68
2021/12/12 06:17:44;;;;;;;9.00;2.15;;;15.30;45.20;14.30;101548.00;;;;5067962;28;20040;-68
2021/12/12 06:20:30;;;;;;;6.53;1.77;;;15.20;45.20;14.30;101553.00;;;;5064929;28;20055;-68
2021/12/12 06:23:16;;;;;;;2.47;1.02;;;15.20;45.20;14.30;101546.00;;;;5067361;28;20039;-68
2021/12/12 06:26:03;;;;;;;5.10;1.52;;;15.30;45.30;14.30;101542.00;;;;5059140;28;20032;-68
2021/12/12 06:28:49;;;;;;;3.67;1.48;;;15.20;45.30;14.30;101551.00;;;;5090366;28;20040;-68
2021/12/12 06:31:38;;;;;;;4.10;1.92;;;15.20;45.30;14.30;101543.00;;;;5088525;28;20091;-68
2021/12/12 06:34:24;;;;;;;5.53;1.70;;;15.20;45.40;14.30;101536.00;;;;5087705;28;20123;-68
2021/12/12 06:37:11;;;;;;;3.92;1.80;;;15.20;45.40;14.30;101543.00;;;;5072656;28;20040;-68
2021/12/12 06:39:57;;;;;;;3.42;1.50;;;15.20;45.40;14.30;101541.00;;;;5086953;28;20481;-68
2021/12/12 06:42:43;;;;;;;2.90;1.10;;;15.20;45.40;14.30;101532.00;;;;5076496;28;20510;-69
2021/12/12 06:45:29;;;;;;;3.78;1.60;;;15.20;45.40;14.30;101537.00;;;;5072427;28;20044;-68
2021/12/12 06:48:16;;;;;;;5.25;1.63;;;15.20;45.50;14.30;101536.00;;;;5074446;28;20040;-68
2021/12/12 06:51:02;;;;;;;4.55;1.58;;;15.20;45.60;14.30;101537.00;;;;5085632;28;20169;-68
2021/12/12 06:53:49;;;;;;;3.83;1.30;;;15.20;45.50;14.30;101527.00;;;;5085335;28;20055;-68
2021/12/12 06:56:36;;;;;;;4.82;1.60;;;15.20;45.60;14.30;101532.00;;;;5061392;28;20042;-68
2021/12/12 06:59:24;;;;;;;2.67;1.63;;;15.20;45.60;14.30;101524.00;;;;5072311;28;20051;-68
2021/12/12 07:02:12;;;;;;;3.92;1.38;;;15.20;45.60;14.30;101549.00;;;;5087545;28;20063;-68
2021/12/12 07:04:59;;;;;;;3.55;1.48;;;15.20;45.60;14.30;101552.00;;;;5071617;28;20202;-68
2021/12/12 07:07:46;;;;;;;4.97;1.55;;;15.20;45.70;14.30;101545.00;;;;5059927;28;20392;-68
2021/12/12 07:10:32;;;;;;;3.90;1.00;;;15.30;45.70;14.30;101549.00;;;;5071291;28;20052;-68
2021/12/12 07:13:19;;;;;;;2.65;1.30;;;15.20;45.70;14.30;101541.00;;;;5057814;28;20055;-68
2021/12/12 07:16:05;;;;;;;2.88;1.45;;;15.20;45.70;14.30;101541.00;;;;5084958;28;20507;-68
2021/12/12 07:19:01;;;;;;;4.18;1.27;;;15.20;45.70;14.30;101535.00;;;;5073039;28;20044;-67
2021/12/12 07:21:47;;;;;;;3.60;1.20;;;15.20;45.80;14.30;101537.00;;;;5086642;28;20099;-68
2021/12/12 07:24:33;;;;;;;2.30;1.30;;;15.30;45.80;14.30;101538.00;;;;5071064;28;20047;-68
2021/12/12 07:27:20;;;;;;;2.35;1.20;;;15.30;45.80;14.30;101537.00;;;;5071722;28;20534;-68
2021/12/12 07:30:07;;;;;;;4.13;1.42;;;15.30;45.90;14.30;101556.00;;;;5087146;28;20063;-68
2021/12/12 07:32:53;;;;;;;2.88;1.40;;;15.30;45.90;14.30;101551.00;;;;5085376;28;20066;-74
2021/12/12 07:35:42;;;;;;;3.50;1.33;;;15.30;45.90;14.30;101566.00;;;;5053825;28;20048;-74
2021/12/12 07:38:29;;;;;;;1.92;1.25;;;15.30;45.90;14.30;101571.00;;;;5087434;28;20401;-74
2021/12/12 07:41:17;;;;;;;2.65;1.10;;;15.30;45.90;14.30;101562.00;;;;5072289;28;20048;-74
2021/12/12 07:44:07;;;;;;;3.03;1.17;;;15.30;45.90;14.30;101565.00;;;;5066249;28;20411;-74
2021/12/12 07:46:53;;;;;;;4.30;1.27;;;15.30;46.00;14.30;101571.00;;;;5058829;28;20036;-74
2021/12/12 07:49:43;;;;;;;2.60;0.90;;;15.30;46.70;14.30;101577.00;;;;5065323;28;20041;-75
2021/12/12 07:52:29;;;;;;;2.17;1.02;;;15.30;46.00;14.40;101571.00;;;;5072279;28;20141;-75
2021/12/12 07:55:15;;;;;;;2.88;1.00;;;15.30;46.00;14.40;101581.00;;;;5054287;28;20041;-75
2021/12/12 07:58:11;;;;;;;2.35;0.95;;;15.40;46.00;14.40;101570.00;;;;5051131;28;20032;-74
2021/12/12 08:00:59;;;;;;;2.03;0.82;;;15.40;46.20;14.40;101566.00;;;;5061585;28;20039;-75
2021/12/12 08:03:45;;;;;;;1.40;0.90;;;15.40;46.10;14.40;101576.00;;;;5055742;28;20036;-74
2021/12/12 08:06:31;;;;;;;2.95;1.00;;;15.40;46.10;14.40;101584.00;;;;5081838;28;20127;-68
2021/12/12 08:09:18;;;;;;;1.33;1.02;;;15.40;46.10;14.40;101579.00;;;;5085447;28;20051;-68
2021/12/12 08:12:05;;;;;;;2.88;1.10;;;15.40;46.20;14.40;101586.00;;;;5083523;28;20459;-68
2021/12/12 08:14:51;;;;;;;4.70;1.20;;;15.40;46.20;14.40;101578.00;;;;5070784;28;20090;-68
2021/12/12 08:17:38;;;;;;;2.30;1.60;;;15.40;46.20;14.40;101576.00;;;;5070785;28;20550;-68
2021/12/12 08:20:26;;;;;;;4.20;1.58;;;15.40;46.20;14.40;101579.00;;;;5057979;28;20044;-68
2021/12/12 08:23:13;;;;;;;3.97;1.90;;;15.40;46.20;14.40;101580.00;;;;5057942;28;20035;-68
2021/12/12 08:26:01;;;;;;;1.80;1.43;;;15.40;46.30;14.40;101575.00;;;;5071480;28;20389;-68
2021/12/12 08:28:47;;;;;;;2.15;1.20;;;15.40;46.30;14.40;101595.00;;;;5063280;28;20032;-68
2021/12/12 08:31:34;;;;;;;3.30;1.75;;;15.40;46.30;14.40;101586.00;;;;5068316;28;20544;-68
2021/12/12 08:34:20;;;;;;;1.20;1.02;;;15.40;46.50;14.40;101590.00;;;;5065900;28;20044;-68
2021/12/12 08:37:06;;;;;;;2.70;1.38;;;15.40;46.40;14.40;101604.00;;;;5065945;28;20051;-68
2021/12/12 08:39:54;;;;;;;2.10;1.23;;;15.40;46.50;14.40;101608.00;;;;5068540;28;20071;-68
2021/12/12 08:42:40;;;;;;;1.80;1.10;;;15.40;46.50;14.50;101603.00;;;;5063036;28;20542;-68
2021/12/12 08:45:31;;;;;;;2.33;1.00;;;15.40;46.40;14.50;101616.00;;;;5070360;28;20047;-68
2021/12/12 08:48:31;;;;;;;1.25;1.00;;;15.50;46.70;14.50;101606.00;;;;5078601;28;20040;-68
2021/12/12 08:51:41;;;;;;;1.52;1.00;;;15.50;46.60;14.50;101621.00;;;;5070370;28;20040;-68
2021/12/12 08:54:28;;;;;;;2.53;1.10;;;15.40;46.60;14.50;101612.00;;;;5084032;28;20396;-68
2021/12/12 09:00:50;;;;;;;2.47;1.15;;;15.50;46.80;14.50;101606.00;;;;5012420;28;20462;-68
2021/12/12 09:04:00;;;;;;;3.17;1.05;;;15.50;46.80;14.50;101608.00;;;;5021279;28;20042;-68
2021/12/12 09:07:35;;;;;;;1.60;1.00;;;15.50;47.00;14.50;101616.00;;;;5088835;28;20036;-68
2021/12/12 09:10:30;;;;;;;1.58;1.00;;;15.50;46.80;14.50;101619.00;;;;5083941;28;20045;-68
2021/12/12 09:13:23;;;;;;;1.75;0.98;;;15.50;46.90;14.40;101619.00;;;;5065452;28;20050;-68
2021/12/12 09:16:17;;;;;;;1.55;1.13;;;15.50;47.00;14.40;101619.00;;;;5051717;28;20043;-68
2021/12/12 09:19:08;;;;;;;2.78;1.20;;;15.50;47.00;14.40;101620.00;;;;5061431;28;20039;-68
2021/12/12 09:22:18;;;;;;;1.20;1.10;;;15.40;47.00;14.50;101622.00;;;;5074173;28;20039;-70
2021/12/12 09:25:37;;;;;;;1.65;1.17;;;15.40;47.20;14.40;101606.00;;;;5067374;28;20153;-69
2021/12/12 09:28:37;;;;;;;2.80;1.20;;;15.50;47.40;14.40;101609.00;;;;5070619;28;20044;-69
2021/12/12 09:31:31;;;;;;;2.42;1.10;;;15.40;47.20;14.40;101600.00;;;;5087894;28;20051;-69
2021/12/12 09:34:36;;;;;;;4.22;1.20;;;15.40;47.20;14.40;101604.00;;;;5055917;28;20477;-69
2021/12/12 09:37:45;;;;;;;3.58;1.38;;;15.40;47.30;14.50;101621.00;;;;5072359;28;20044;-69
2021/12/12 09:40:55;;;;;;;2.17;1.15;;;15.40;47.20;14.50;101618.00;;;;5081414;28;20389;-78
2021/12/12 09:44:09;;;;;;;1.85;1.50;;;15.50;47.30;14.40;101622.00;;;;5085730;28;20040;-68
2021/12/12 09:47:31;;;;;;;1.75;1.33;;;15.50;47.50;14.40;101604.00;;;;5088700;28;20650;-68
2021/12/12 09:54:15;;;;;;;1.65;1.20;;;15.40;47.50;14.40;101635.00;;;;5086898;28;20032;-71
2021/12/12 09:57:33;;;;;;;1.10;1.00;;;15.40;47.40;14.40;101635.00;;;;5073365;28;20119;-68
2021/12/12 10:00:58;;;;;;;1.48;1.13;;;15.40;47.40;14.50;101623.00;;;;5082947;28;20047;-68
2021/12/12 10:04:12;;;;;;;1.45;1.30;;;15.40;47.50;14.40;101629.00;;;;5089605;28;20244;-68
2021/12/12 10:07:11;;;;;;;1.73;1.23;;;15.50;47.60;14.50;101634.00;;;;5060081;28;20039;-68
2021/12/12 10:10:01;;;;;;;3.20;1.85;;;15.50;47.70;14.50;101636.00;;;;5083478;28;20047;-68
2021/12/12 10:13:01;;;;;;;1.40;1.30;;;15.50;47.70;14.50;101630.00;;;;5059177;28;20035;-68
2021/12/12 10:16:23;;;;;;;1.38;1.27;;;15.50;47.70;14.50;101631.00;;;;5084193;28;20036;-68
2021/12/12 10:19:33;;;;;;;2.30;1.30;;;15.50;47.60;14.50;101630.00;;;;5072160;28;20063;-68
2021/12/12 10:23:02;;;;;;;1.60;1.33;;;15.50;47.80;14.50;101635.00;;;;5071115;28;20040;-67
2021/12/12 10:26:03;;;;;;;0.98;0.98;;;15.50;47.60;14.50;101632.00;;;;5082380;28;20044;-68
2021/12/12 10:28:52;;;;;;;4.32;1.40;;;15.50;47.60;14.50;101639.00;;;;5054205;28;20130;-68
2021/12/12 10:31:50;;;;;;;2.65;1.30;;;15.50;47.70;14.50;101631.00;;;;5084452;28;20051;-68
2021/12/12 10:34:49;;;;;;;1.23;0.90;;;15.50;47.70;14.50;101638.00;;;;5069506;28;20040;-68
2021/12/12 10:38:24;;;;;;;1.40;1.30;;;15.50;47.70;14.50;101633.00;;;;5052841;28;20753;-68
2021/12/12 10:41:22;;;;;;;1.30;1.20;;;15.50;47.80;14.50;101636.00;;;;4998727;28;20046;-68
2021/12/12 10:44:15;;;;;;;1.40;1.20;;;15.60;47.70;14.50;101632.00;;;;5070254;28;20507;-68
2021/12/12 10:47:30;;;;;;;3.33;1.48;;;15.60;47.80;14.50;101638.00;;;;5068464;28;20044;-68
2021/12/12 10:50:28;;;;;;;1.73;1.48;;;15.60;47.80;14.50;101629.00;;;;5056575;28;20048;-68
2021/12/12 10:53:31;;;;;;;2.92;1.77;;;15.60;47.90;14.60;101625.00;;;;5073424;28;20054;-67
2021/12/12 10:56:33;;;;;;;2.25;1.30;;;15.60;47.80;14.50;101624.00;;;;5073931;28;20044;-67
2021/12/12 10:59:52;;;;;;;1.90;1.58;;;15.60;48.00;14.60;101636.00;;;;5069056;28;20114;-67
2021/12/12 11:03:09;;;;;;;2.15;1.45;;;15.60;48.70;14.60;101630.00;;;;5069417;28;20046;-68
2021/12/12 11:06:35;;;;;;;1.33;1.20;;;15.60;47.90;14.60;101627.00;;;;5083824;28;20043;-68
2021/12/12 11:09:38;;;;;;;1.83;1.38;;;15.60;48.00;14.60;101616.00;;;;4995232;28;20406;-68
2021/12/12 11:12:51;;;;;;;1.98;1.25;;;15.60;47.90;14.60;101619.00;;;;5036285;28;20036;-68
2021/12/12 11:16:01;;;;;;;2.05;1.30;;;15.60;48.10;14.60;101632.00;;;;5074755;28;20397;-68
2021/12/12 11:19:30;;;;;;;1.73;1.20;;;15.60;48.00;14.60;101625.00;;;;5065288;28;20086;-68
2021/12/12 11:22:25;;;;;;;2.08;1.30;;;15.60;47.90;14.60;101629.00;;;;5070487;28;20079;-68
2021/12/12 11:25:49;;;;;;;1.95;1.25;;;15.60;48.00;14.60;101621.00;;;;5069695;28;20478;-68
2021/12/12 11:29:01;;;;;;;1.48;1.38;;;15.90;48.30;14.60;101628.00;;;;5083189;28;20469;-73
2021/12/12 11:31:54;;;;;;;1.75;1.33;;;15.60;48.20;14.60;101614.00;;;;5062131;28;20064;-68
2021/12/12 11:34:47;;;;;;;1.23;1.08;;;15.70;48.20;14.60;101613.00;;;;5077557;28;20484;-69
2021/12/12 11:37:52;;;;;;;1.55;1.00;;;15.60;48.20;14.60;101617.00;;;;5080736;28;20121;-68
2021/12/12 11:40:46;;;;;;;2.80;1.00;;;15.60;48.50;14.60;101607.00;;;;5064867;28;20049;-69
2021/12/12 11:43:45;;;;;;;0.80;0.77;;;15.70;48.30;14.70;101620.00;;;;5082387;28;20496;-68
2021/12/12 11:47:09;;;;;;;1.40;1.30;;;15.70;48.20;14.70;101627.00;;;;5074927;28;20067;-68
2021/12/12 11:50:10;;;;;;;1.83;1.10;;;15.70;48.60;14.70;101615.00;;;;5061186;28;20041;-68
2021/12/12 11:53:34;;;;;;;2.75;1.10;;;15.70;48.40;14.70;101614.00;;;;5059116;28;20036;-70
2021/12/12 11:56:45;;;;;;;1.27;1.10;;;15.70;48.50;14.70;101615.00;;;;5053313;28;20473;-68
2021/12/12 11:59:44;;;;;;;1.45;0.93;;;15.70;48.50;14.70;101616.00;;;;5058555;28;20393;-68
2021/12/12 12:03:28;;;;;;;1.42;0.90;;;15.70;48.60;14.70;101615.00;;;;5084512;28;20051;-70
2021/12/12 12:06:52;;;;;;;1.63;1.10;;;15.70;48.70;14.70;101616.00;;;;5083499;28;20048;-69
2021/12/12 12:10:00;;;;;;;1.52;0.88;;;15.70;48.60;14.70;101615.00;;;;5075087;28;20044;-69
2021/12/12 12:13:40;;;;;;;2.60;1.00;;;15.70;48.60;14.70;101619.00;;;;5086512;28;20046;-69
2021/12/12 12:16:48;;;;;;;0.90;0.80;;;15.70;48.70;14.70;101613.00;;;;5061226;28;20462;-69
2021/12/12 12:20:00;;;;;;;1.13;1.03;;;15.70;48.80;14.70;101612.00;;;;5070964;28;20105;-68
2021/12/12 12:23:06;;;;;;;1.00;0.90;;;15.70;49.60;14.70;101622.00;;;;5052306;28;20031;-67
2021/12/12 12:29:21;;;;;;;1.10;1.00;;;15.70;49.00;14.70;101616.00;;;;5072158;28;20059;-67
2021/12/12 12:32:41;;;;;;;0.85;0.85;;;15.70;49.10;14.70;101616.00;;;;5086249;28;20463;-67
2021/12/12 12:36:22;;;;;;;1.48;0.80;;;15.70;49.10;14.70;101616.00;;;;5084628;28;21884;-67
2021/12/12 12:40:01;;;;;;;0.65;0.65;;;15.70;49.00;14.70;101622.00;;;;5087592;28;20047;-67
2021/12/12 12:43:43;;;;;;;2.78;0.70;;;15.70;49.10;14.70;101641.00;;;;5066005;28;20116;-67
2021/12/12 12:47:07;;;;;;;0.60;0.60;;;15.70;49.10;14.70;101641.00;;;;5080559;28;20084;-67
2021/12/12 12:50:38;;;;;;;1.55;0.70;;;15.70;49.10;14.70;101635.00;;;;5084507;28;20060;-67
2021/12/12 12:53:56;;;;;;;1.05;0.82;;;15.70;49.10;14.70;101636.00;;;;5080726;28;20109;-67
2021/12/12 12:57:19;;;;;;;1.23;0.82;;;15.70;49.40;14.70;101633.00;;;;5090027;28;20267;-67
2021/12/12 13:00:10;;;;;;;0.95;0.70;;;15.70;49.50;14.70;101636.00;;;;5085837;28;20114;-67
2021/12/12 13:03:10;;;;;;;0.80;0.80;;;15.70;49.20;14.70;101629.00;;;;5089337;28;20043;-67
2021/12/12 13:06:10;;;;;;;1.98;0.82;;;15.70;49.50;14.70;101623.00;;;;5086115;28;20042;-67
2021/12/12 13:09:21;;;;;;;1.00;0.50;;;15.70;49.50;14.80;101627.00;;;;5088859;28;20077;-67
2021/12/12 13:12:27;;;;;;;1.15;0.75;;;15.80;49.60;14.80;101620.00;;;;5058219;28;20548;-67
2021/12/12 13:15:49;;;;;;;1.73;0.75;;;15.80;49.60;14.80;101622.00;;;;5065679;28;20039;-67
2021/12/12 13:19:31;;;;;;;1.00;0.85;;;15.80;49.60;14.80;101632.00;;;;5087837;28;20119;-67
2021/12/12 13:23:03;;;;;;;0.80;0.73;;;15.80;49.60;14.80;101625.00;;;;5076352;28;20122;-67
2021/12/12 13:26:09;;;;;;;0.63;0.63;;;15.80;49.70;14.70;101623.00;;;;5057716;28;20129;-67